sensor_id;sensor_type;location;lat;lon;timestamp;P1;durP1;ratioP1;P2;durP2;ratioP2
75280;SDS011;63874;47.230;39.620;2023-04-25T00:01:31;1.73;;;0.73;;
75280;SDS011;63874;47.230;39.620;2023-04-25T00:04:00;1.15;;;0.60;;
75280;SDS011;63874;47.230;39.620;2023-04-25T00:06:26;0.85;;;0.40;;
75280;SDS011;63874;47.230;39.620;2023-04-25T00:08:52;1.58;;;0.60;;
75280;SDS011;63874;47.230;39.620;2023-04-25T00:11:18;1.30;;;0.65;;
75280;SDS011;63874;47.230;39.620;2023-04-25T00:13:44;1.27;;;0.50;;
75280;SDS011;63874;47.230;39.620;2023-04-25T00:16:11;2.45;;;0.60;;
75280;SDS011;63874;47.230;39.620;2023-04-25T00:18:40;1.48;;;0.40;;
75280;SDS011;63874;47.230;39.620;2023-04-25T00:21:07;1.67;;;0.70;;
75280;SDS011;63874;47.230;39.620;2023-04-25T00:23:33;1.55;;;0.60;;
75280;SDS011;63874;47.230;39.620;2023-04-25T00:26:01;1.17;;;0.55;;
75280;SDS011;63874;47.230;39.620;2023-04-25T00:28:27;1.77;;;0.65;;
75280;SDS011;63874;47.230;39.620;2023-04-25T00:30:53;1.50;;;0.80;;
75280;SDS011;63874;47.230;39.620;2023-04-25T00:33:19;1.80;;;0.45;;
75280;SDS011;63874;47.230;39.620;2023-04-25T00:35:45;2.50;;;0.95;;
75280;SDS011;63874;47.230;39.620;2023-04-25T00:38:11;2.13;;;0.98;;
75280;SDS011;63874;47.230;39.620;2023-04-25T00:40:37;1.15;;;0.47;;
75280;SDS011;63874;47.230;39.620;2023-04-25T00:43:03;1.23;;;0.45;;
75280;SDS011;63874;47.230;39.620;2023-04-25T00:45:29;1.23;;;0.60;;
75280;SDS011;63874;47.230;39.620;2023-04-25T00:47:56;1.55;;;0.60;;
75280;SDS011;63874;47.230;39.620;2023-04-25T00:50:23;1.77;;;0.70;;
75280;SDS011;63874;47.230;39.620;2023-04-25T00:52:49;1.20;;;0.50;;
75280;SDS011;63874;47.230;39.620;2023-04-25T00:55:15;1.80;;;0.65;;
75280;SDS011;63874;47.230;39.620;2023-04-25T00:57:42;1.27;;;0.55;;
75280;SDS011;63874;47.230;39.620;2023-04-25T01:00:08;2.03;;;0.82;;
75280;SDS011;63874;47.230;39.620;2023-04-25T01:02:36;1.52;;;0.50;;
75280;SDS011;63874;47.230;39.620;2023-04-25T01:05:03;1.73;;;0.70;;
75280;SDS011;63874;47.230;39.620;2023-04-25T01:07:29;2.88;;;0.95;;
75280;SDS011;63874;47.230;39.620;2023-04-25T01:09:55;1.35;;;0.50;;
75280;SDS011;63874;47.230;39.620;2023-04-25T01:12:22;1.20;;;0.50;;
75280;SDS011;63874;47.230;39.620;2023-04-25T01:14:48;1.40;;;0.57;;
75280;SDS011;63874;47.230;39.620;2023-04-25T01:17:14;1.17;;;0.45;;
75280;SDS011;63874;47.230;39.620;2023-04-25T01:19:41;1.67;;;0.90;;
75280;SDS011;63874;47.230;39.620;2023-04-25T01:22:07;2.08;;;0.57;;
75280;SDS011;63874;47.230;39.620;2023-04-25T01:24:35;0.93;;;0.50;;
75280;SDS011;63874;47.230;39.620;2023-04-25T01:27:02;1.45;;;0.82;;
75280;SDS011;63874;47.230;39.620;2023-04-25T01:29:29;1.25;;;0.65;;
75280;SDS011;63874;47.230;39.620;2023-04-25T01:31:55;1.70;;;0.88;;
75280;SDS011;63874;47.230;39.620;2023-04-25T01:34:23;2.08;;;0.60;;
75280;SDS011;63874;47.230;39.620;2023-04-25T01:36:50;1.95;;;0.90;;
75280;SDS011;63874;47.230;39.620;2023-04-25T01:39:18;1.52;;;0.57;;
75280;SDS011;63874;47.230;39.620;2023-04-25T01:41:45;1.40;;;0.57;;
75280;SDS011;63874;47.230;39.620;2023-04-25T01:44:12;1.50;;;0.60;;
75280;SDS011;63874;47.230;39.620;2023-04-25T01:46:38;1.98;;;0.60;;
75280;SDS011;63874;47.230;39.620;2023-04-25T01:49:04;1.67;;;0.88;;
75280;SDS011;63874;47.230;39.620;2023-04-25T01:51:31;1.77;;;0.68;;
75280;SDS011;63874;47.230;39.620;2023-04-25T01:53:58;2.03;;;0.75;;
75280;SDS011;63874;47.230;39.620;2023-04-25T01:56:24;1.85;;;0.98;;
75280;SDS011;63874;47.230;39.620;2023-04-25T01:58:50;2.03;;;1.02;;
75280;SDS011;63874;47.230;39.620;2023-04-25T02:01:35;3.30;;;0.80;;
75280;SDS011;63874;47.230;39.620;2023-04-25T02:04:18;1.42;;;0.50;;
75280;SDS011;63874;47.230;39.620;2023-04-25T02:06:44;2.58;;;0.82;;
75280;SDS011;63874;47.230;39.620;2023-04-25T02:09:11;2.08;;;0.90;;
75280;SDS011;63874;47.230;39.620;2023-04-25T02:11:42;1.58;;;0.70;;
75280;SDS011;63874;47.230;39.620;2023-04-25T02:14:33;1.45;;;0.63;;
75280;SDS011;63874;47.230;39.620;2023-04-25T02:17:20;1.67;;;0.70;;
75280;SDS011;63874;47.230;39.620;2023-04-25T02:19:47;2.38;;;1.20;;
75280;SDS011;63874;47.230;39.620;2023-04-25T02:22:13;1.60;;;0.73;;
75280;SDS011;63874;47.230;39.620;2023-04-25T02:24:39;2.47;;;0.85;;
75280;SDS011;63874;47.230;39.620;2023-04-25T02:27:05;2.67;;;1.27;;
75280;SDS011;63874;47.230;39.620;2023-04-25T02:29:31;2.50;;;1.10;;
75280;SDS011;63874;47.230;39.620;2023-04-25T02:31:57;2.33;;;1.02;;
75280;SDS011;63874;47.230;39.620;2023-04-25T02:34:23;1.90;;;0.95;;
75280;SDS011;63874;47.230;39.620;2023-04-25T02:36:49;2.45;;;0.90;;
75280;SDS011;63874;47.230;39.620;2023-04-25T02:39:17;2.63;;;1.23;;
75280;SDS011;63874;47.230;39.620;2023-04-25T02:41:43;1.95;;;1.25;;
75280;SDS011;63874;47.230;39.620;2023-04-25T02:44:09;2.00;;;1.15;;
75280;SDS011;63874;47.230;39.620;2023-04-25T02:46:36;2.40;;;1.38;;
75280;SDS011;63874;47.230;39.620;2023-04-25T02:49:02;3.63;;;1.42;;
75280;SDS011;63874;47.230;39.620;2023-04-25T02:51:29;2.92;;;1.63;;
75280;SDS011;63874;47.230;39.620;2023-04-25T02:53:55;3.60;;;1.35;;
75280;SDS011;63874;47.230;39.620;2023-04-25T02:56:21;2.78;;;1.15;;
75280;SDS011;63874;47.230;39.620;2023-04-25T02:58:47;2.60;;;1.30;;
75280;SDS011;63874;47.230;39.620;2023-04-25T03:01:13;2.42;;;1.20;;
75280;SDS011;63874;47.230;39.620;2023-04-25T03:03:39;3.60;;;1.55;;
75280;SDS011;63874;47.230;39.620;2023-04-25T03:06:05;2.80;;;1.40;;
75280;SDS011;63874;47.230;39.620;2023-04-25T03:08:32;2.17;;;1.17;;
75280;SDS011;63874;47.230;39.620;2023-04-25T03:11:00;3.15;;;2.00;;
75280;SDS011;63874;47.230;39.620;2023-04-25T03:13:26;2.50;;;1.13;;
75280;SDS011;63874;47.230;39.620;2023-04-25T03:15:54;3.17;;;1.40;;
75280;SDS011;63874;47.230;39.620;2023-04-25T03:18:20;2.88;;;1.42;;
75280;SDS011;63874;47.230;39.620;2023-04-25T03:20:46;2.92;;;1.48;;
75280;SDS011;63874;47.230;39.620;2023-04-25T03:23:12;3.55;;;1.85;;
75280;SDS011;63874;47.230;39.620;2023-04-25T03:25:41;3.28;;;1.70;;
75280;SDS011;63874;47.230;39.620;2023-04-25T03:28:06;2.47;;;1.17;;
75280;SDS011;63874;47.230;39.620;2023-04-25T03:30:32;3.17;;;1.55;;
75280;SDS011;63874;47.230;39.620;2023-04-25T03:32:59;3.88;;;1.63;;
75280;SDS011;63874;47.230;39.620;2023-04-25T03:35:25;2.40;;;1.08;;
75280;SDS011;63874;47.230;39.620;2023-04-25T03:37:51;2.53;;;1.42;;
75280;SDS011;63874;47.230;39.620;2023-04-25T03:40:22;3.60;;;1.60;;
75280;SDS011;63874;47.230;39.620;2023-04-25T03:43:17;2.95;;;1.40;;
75280;SDS011;63874;47.230;39.620;2023-04-25T03:45:50;3.42;;;1.80;;
75280;SDS011;63874;47.230;39.620;2023-04-25T03:48:19;2.72;;;1.60;;
75280;SDS011;63874;47.230;39.620;2023-04-25T03:50:50;2.95;;;1.60;;
75280;SDS011;63874;47.230;39.620;2023-04-25T03:53:16;3.13;;;1.23;;
75280;SDS011;63874;47.230;39.620;2023-04-25T03:56:05;2.75;;;1.25;;
75280;SDS011;63874;47.230;39.620;2023-04-25T03:58:34;2.42;;;1.38;;
75280;SDS011;63874;47.230;39.620;2023-04-25T04:01:00;2.85;;;1.33;;
75280;SDS011;63874;47.230;39.620;2023-04-25T04:03:30;2.47;;;1.38;;
75280;SDS011;63874;47.230;39.620;2023-04-25T04:05:56;2.20;;;1.23;;
75280;SDS011;63874;47.230;39.620;2023-04-25T04:08:22;2.72;;;1.60;;
75280;SDS011;63874;47.230;39.620;2023-04-25T04:10:47;2.83;;;1.50;;
75280;SDS011;63874;47.230;39.620;2023-04-25T04:13:14;2.75;;;1.38;;
75280;SDS011;63874;47.230;39.620;2023-04-25T04:15:40;2.78;;;1.23;;
75280;SDS011;63874;47.230;39.620;2023-04-25T04:18:06;2.20;;;0.80;;
75280;SDS011;63874;47.230;39.620;2023-04-25T04:20:31;1.45;;;0.63;;
75280;SDS011;63874;47.230;39.620;2023-04-25T04:22:57;1.90;;;0.88;;
75280;SDS011;63874;47.230;39.620;2023-04-25T04:25:24;2.92;;;1.25;;
75280;SDS011;63874;47.230;39.620;2023-04-25T04:28:07;2.80;;;1.30;;
75280;SDS011;63874;47.230;39.620;2023-04-25T04:30:47;2.00;;;0.90;;
75280;SDS011;63874;47.230;39.620;2023-04-25T04:33:13;2.00;;;0.98;;
75280;SDS011;63874;47.230;39.620;2023-04-25T04:35:41;2.00;;;0.88;;
75280;SDS011;63874;47.230;39.620;2023-04-25T04:38:09;2.03;;;1.00;;
75280;SDS011;63874;47.230;39.620;2023-04-25T04:40:36;2.60;;;1.20;;
75280;SDS011;63874;47.230;39.620;2023-04-25T04:43:17;2.03;;;1.05;;
75280;SDS011;63874;47.230;39.620;2023-04-25T04:46:01;2.03;;;0.82;;
75280;SDS011;63874;47.230;39.620;2023-04-25T04:48:48;1.75;;;0.75;;
75280;SDS011;63874;47.230;39.620;2023-04-25T04:51:20;1.95;;;0.85;;
75280;SDS011;63874;47.230;39.620;2023-04-25T04:54:02;1.65;;;0.80;;
75280;SDS011;63874;47.230;39.620;2023-04-25T04:56:51;1.33;;;0.50;;
75280;SDS011;63874;47.230;39.620;2023-04-25T04:59:36;1.83;;;0.65;;
75280;SDS011;63874;47.230;39.620;2023-04-25T05:02:22;1.60;;;0.65;;
75280;SDS011;63874;47.230;39.620;2023-04-25T05:04:48;0.88;;;0.32;;
75280;SDS011;63874;47.230;39.620;2023-04-25T05:07:40;0.90;;;0.38;;
75280;SDS011;63874;47.230;39.620;2023-04-25T05:13:04;1.00;;;0.40;;
75280;SDS011;63874;47.230;39.620;2023-04-25T05:15:50;0.40;;;0.17;;
75280;SDS011;63874;47.230;39.620;2023-04-25T05:18:42;0.80;;;0.40;;
75280;SDS011;63874;47.230;39.620;2023-04-25T05:21:28;0.98;;;0.28;;
75280;SDS011;63874;47.230;39.620;2023-04-25T05:24:05;1.27;;;0.40;;
75280;SDS011;63874;47.230;39.620;2023-04-25T05:26:49;0.70;;;0.35;;
75280;SDS011;63874;47.230;39.620;2023-04-25T05:29:34;0.80;;;0.20;;
75280;SDS011;63874;47.230;39.620;2023-04-25T05:32:29;0.63;;;0.22;;
75280;SDS011;63874;47.230;39.620;2023-04-25T05:34:55;1.40;;;0.22;;
75280;SDS011;63874;47.230;39.620;2023-04-25T05:37:25;1.30;;;0.40;;
75280;SDS011;63874;47.230;39.620;2023-04-25T05:40:00;0.65;;;0.30;;
75280;SDS011;63874;47.230;39.620;2023-04-25T05:42:40;0.70;;;0.30;;
75280;SDS011;63874;47.230;39.620;2023-04-25T05:45:25;0.70;;;0.20;;
75280;SDS011;63874;47.230;39.620;2023-04-25T05:48:08;1.10;;;0.30;;
75280;SDS011;63874;47.230;39.620;2023-04-25T05:53:36;0.80;;;0.20;;
75280;SDS011;63874;47.230;39.620;2023-04-25T05:56:02;0.73;;;0.35;;
75280;SDS011;63874;47.230;39.620;2023-04-25T05:58:28;0.50;;;0.30;;
75280;SDS011;63874;47.230;39.620;2023-04-25T06:00:55;0.98;;;0.63;;
75280;SDS011;63874;47.230;39.620;2023-04-25T06:03:22;0.45;;;0.20;;
75280;SDS011;63874;47.230;39.620;2023-04-25T06:05:49;0.73;;;0.30;;
75280;SDS011;63874;47.230;39.620;2023-04-25T06:08:15;0.50;;;0.10;;
75280;SDS011;63874;47.230;39.620;2023-04-25T06:10:41;1.08;;;0.40;;
75280;SDS011;63874;47.230;39.620;2023-04-25T06:13:07;0.45;;;0.20;;
75280;SDS011;63874;47.230;39.620;2023-04-25T06:15:35;0.57;;;0.25;;
75280;SDS011;63874;47.230;39.620;2023-04-25T06:18:01;1.98;;;0.25;;
75280;SDS011;63874;47.230;39.620;2023-04-25T06:20:27;0.90;;;0.30;;
75280;SDS011;63874;47.230;39.620;2023-04-25T06:22:56;0.60;;;0.30;;
75280;SDS011;63874;47.230;39.620;2023-04-25T06:25:51;1.02;;;0.30;;
75280;SDS011;63874;47.230;39.620;2023-04-25T06:28:17;0.30;;;0.10;;
75280;SDS011;63874;47.230;39.620;2023-04-25T06:30:44;0.38;;;0.10;;
75280;SDS011;63874;47.230;39.620;2023-04-25T06:33:15;0.70;;;0.30;;
75280;SDS011;63874;47.230;39.620;2023-04-25T06:35:41;1.33;;;0.32;;
75280;SDS011;63874;47.230;39.620;2023-04-25T06:38:10;1.60;;;0.20;;
75280;SDS011;63874;47.230;39.620;2023-04-25T06:40:37;1.02;;;0.32;;
75280;SDS011;63874;47.230;39.620;2023-04-25T06:43:04;1.30;;;0.40;;
75280;SDS011;63874;47.230;39.620;2023-04-25T06:45:52;0.43;;;0.20;;
75280;SDS011;63874;47.230;39.620;2023-04-25T06:48:19;0.70;;;0.20;;
75280;SDS011;63874;47.230;39.620;2023-04-25T06:50:45;0.70;;;0.30;;
75280;SDS011;63874;47.230;39.620;2023-04-25T06:53:11;1.25;;;0.32;;
75280;SDS011;63874;47.230;39.620;2023-04-25T06:55:39;0.90;;;0.30;;
75280;SDS011;63874;47.230;39.620;2023-04-25T06:58:11;0.40;;;0.20;;
75280;SDS011;63874;47.230;39.620;2023-04-25T07:01:06;0.52;;;0.22;;
75280;SDS011;63874;47.230;39.620;2023-04-25T07:03:33;0.50;;;0.22;;
75280;SDS011;63874;47.230;39.620;2023-04-25T07:06:04;1.02;;;0.25;;
75280;SDS011;63874;47.230;39.620;2023-04-25T07:08:30;0.70;;;0.20;;
75280;SDS011;63874;47.230;39.620;2023-04-25T07:10:57;0.73;;;0.20;;
75280;SDS011;63874;47.230;39.620;2023-04-25T07:13:23;0.45;;;0.20;;
75280;SDS011;63874;47.230;39.620;2023-04-25T07:15:49;0.52;;;0.32;;
75280;SDS011;63874;47.230;39.620;2023-04-25T07:18:18;0.50;;;0.20;;
75280;SDS011;63874;47.230;39.620;2023-04-25T07:20:44;0.57;;;0.13;;
75280;SDS011;63874;47.230;39.620;2023-04-25T07:23:10;0.32;;;0.10;;
75280;SDS011;63874;47.230;39.620;2023-04-25T07:25:36;1.00;;;0.13;;
75280;SDS011;63874;47.230;39.620;2023-04-25T07:28:02;0.55;;;0.28;;
75280;SDS011;63874;47.230;39.620;2023-04-25T07:30:28;0.30;;;0.17;;
75280;SDS011;63874;47.230;39.620;2023-04-25T07:32:54;0.50;;;0.30;;
75280;SDS011;63874;47.230;39.620;2023-04-25T07:35:20;0.20;;;0.10;;
75280;SDS011;63874;47.230;39.620;2023-04-25T07:37:47;0.60;;;0.10;;
75280;SDS011;63874;47.230;39.620;2023-04-25T07:40:18;0.70;;;0.13;;
75280;SDS011;63874;47.230;39.620;2023-04-25T07:42:48;0.55;;;0.10;;
75280;SDS011;63874;47.230;39.620;2023-04-25T07:45:18;0.20;;;0.10;;
75280;SDS011;63874;47.230;39.620;2023-04-25T07:47:44;0.20;;;0.10;;
75280;SDS011;63874;47.230;39.620;2023-04-25T07:50:11;0.20;;;0.10;;
75280;SDS011;63874;47.230;39.620;2023-04-25T07:52:36;0.40;;;0.20;;
75280;SDS011;63874;47.230;39.620;2023-04-25T07:55:25;0.20;;;0.10;;
75280;SDS011;63874;47.230;39.620;2023-04-25T07:58:06;0.50;;;0.20;;
75280;SDS011;63874;47.230;39.620;2023-04-25T08:00:33;0.52;;;0.43;;
75280;SDS011;63874;47.230;39.620;2023-04-25T08:03:31;0.25;;;0.13;;
75280;SDS011;63874;47.230;39.620;2023-04-25T08:05:58;0.40;;;0.15;;
75280;SDS011;63874;47.230;39.620;2023-04-25T08:08:26;0.22;;;0.10;;
75280;SDS011;63874;47.230;39.620;2023-04-25T08:10:52;0.30;;;0.10;;
75280;SDS011;63874;47.230;39.620;2023-04-25T08:13:18;0.88;;;0.10;;
75280;SDS011;63874;47.230;39.620;2023-04-25T08:15:44;0.77;;;0.30;;
75280;SDS011;63874;47.230;39.620;2023-04-25T08:18:10;1.45;;;0.10;;
75280;SDS011;63874;47.230;39.620;2023-04-25T08:20:36;0.20;;;0.10;;
75280;SDS011;63874;47.230;39.620;2023-04-25T08:23:05;0.30;;;0.10;;
75280;SDS011;63874;47.230;39.620;2023-04-25T08:25:51;0.88;;;0.10;;
75280;SDS011;63874;47.230;39.620;2023-04-25T08:28:20;0.82;;;0.20;;
75280;SDS011;63874;47.230;39.620;2023-04-25T08:30:47;0.43;;;0.20;;
75280;SDS011;63874;47.230;39.620;2023-04-25T08:33:14;1.50;;;0.20;;
75280;SDS011;63874;47.230;39.620;2023-04-25T08:36:05;0.60;;;0.40;;
75280;SDS011;63874;47.230;39.620;2023-04-25T08:38:31;0.20;;;0.10;;
75280;SDS011;63874;47.230;39.620;2023-04-25T08:40:58;0.43;;;0.13;;
75280;SDS011;63874;47.230;39.620;2023-04-25T08:43:27;0.32;;;0.10;;
75280;SDS011;63874;47.230;39.620;2023-04-25T08:45:55;0.25;;;0.13;;
75280;SDS011;63874;47.230;39.620;2023-04-25T08:48:43;0.43;;;0.20;;
75280;SDS011;63874;47.230;39.620;2023-04-25T08:51:13;0.35;;;0.10;;
75280;SDS011;63874;47.230;39.620;2023-04-25T08:56:16;1.08;;;0.20;;
75280;SDS011;63874;47.230;39.620;2023-04-25T08:58:48;0.20;;;0.10;;
75280;SDS011;63874;47.230;39.620;2023-04-25T09:01:16;0.35;;;0.10;;
75280;SDS011;63874;47.230;39.620;2023-04-25T09:03:49;0.32;;;0.15;;
75280;SDS011;63874;47.230;39.620;2023-04-25T09:06:17;0.30;;;0.10;;
75280;SDS011;63874;47.230;39.620;2023-04-25T09:08:44;0.40;;;0.17;;
75280;SDS011;63874;47.230;39.620;2023-04-25T09:11:10;0.40;;;0.20;;
75280;SDS011;63874;47.230;39.620;2023-04-25T09:13:37;0.40;;;0.13;;
75280;SDS011;63874;47.230;39.620;2023-04-25T09:16:23;0.38;;;0.15;;
75280;SDS011;63874;47.230;39.620;2023-04-25T09:19:13;0.20;;;0.10;;
75280;SDS011;63874;47.230;39.620;2023-04-25T09:21:50;1.33;;;0.20;;
75280;SDS011;63874;47.230;39.620;2023-04-25T09:27:19;1.25;;;0.17;;
75280;SDS011;63874;47.230;39.620;2023-04-25T09:30:10;0.28;;;0.13;;
75280;SDS011;63874;47.230;39.620;2023-04-25T09:33:04;0.43;;;0.13;;
75280;SDS011;63874;47.230;39.620;2023-04-25T09:35:35;0.32;;;0.20;;
75280;SDS011;63874;47.230;39.620;2023-04-25T09:38:07;0.38;;;0.13;;
75280;SDS011;63874;47.230;39.620;2023-04-25T09:41:09;0.35;;;0.10;;
75280;SDS011;63874;47.230;39.620;2023-04-25T09:43:44;0.30;;;0.10;;
75280;SDS011;63874;47.230;39.620;2023-04-25T09:46:12;0.40;;;0.13;;
75280;SDS011;63874;47.230;39.620;2023-04-25T09:48:49;0.20;;;0.10;;
75280;SDS011;63874;47.230;39.620;2023-04-25T09:51:18;0.30;;;0.20;;
75280;SDS011;63874;47.230;39.620;2023-04-25T09:53:46;0.40;;;0.10;;
75280;SDS011;63874;47.230;39.620;2023-04-25T09:56:31;0.20;;;0.00;;
75280;SDS011;63874;47.230;39.620;2023-04-25T09:59:03;0.25;;;0.10;;
75280;SDS011;63874;47.230;39.620;2023-04-25T10:01:32;0.20;;;0.00;;
75280;SDS011;63874;47.230;39.620;2023-04-25T10:04:06;0.20;;;0.10;;
75280;SDS011;63874;47.230;39.620;2023-04-25T10:07:03;0.30;;;0.10;;
75280;SDS011;63874;47.230;39.620;2023-04-25T10:09:32;0.65;;;0.22;;
75280;SDS011;63874;47.230;39.620;2023-04-25T10:11:59;1.00;;;0.30;;
75280;SDS011;63874;47.230;39.620;2023-04-25T10:14:26;0.20;;;0.10;;
75280;SDS011;63874;47.230;39.620;2023-04-25T10:16:52;0.73;;;0.40;;
75280;SDS011;63874;47.230;39.620;2023-04-25T10:19:21;0.20;;;0.10;;
75280;SDS011;63874;47.230;39.620;2023-04-25T10:22:07;0.52;;;0.20;;
75280;SDS011;63874;47.230;39.620;2023-04-25T10:24:37;0.40;;;0.30;;
75280;SDS011;63874;47.230;39.620;2023-04-25T10:27:04;0.70;;;0.22;;
75280;SDS011;63874;47.230;39.620;2023-04-25T10:29:31;0.40;;;0.25;;
75280;SDS011;63874;47.230;39.620;2023-04-25T10:31:57;0.35;;;0.28;;
75280;SDS011;63874;47.230;39.620;2023-04-25T10:34:24;0.75;;;0.30;;
75280;SDS011;63874;47.230;39.620;2023-04-25T10:37:04;0.40;;;0.20;;
75280;SDS011;63874;47.230;39.620;2023-04-25T10:39:30;0.82;;;0.10;;
75280;SDS011;63874;47.230;39.620;2023-04-25T10:41:58;0.32;;;0.20;;
75280;SDS011;63874;47.230;39.620;2023-04-25T10:44:27;1.75;;;0.20;;
75280;SDS011;63874;47.230;39.620;2023-04-25T10:46:55;0.20;;;0.10;;
75280;SDS011;63874;47.230;39.620;2023-04-25T10:49:37;0.50;;;0.20;;
75280;SDS011;63874;47.230;39.620;2023-04-25T10:54:40;0.28;;;0.10;;
75280;SDS011;63874;47.230;39.620;2023-04-25T10:57:41;0.30;;;0.15;;
75280;SDS011;63874;47.230;39.620;2023-04-25T11:00:14;0.30;;;0.10;;
75280;SDS011;63874;47.230;39.620;2023-04-25T11:02:51;0.30;;;0.10;;
75280;SDS011;63874;47.230;39.620;2023-04-25T11:07:51;0.20;;;0.10;;
75280;SDS011;63874;47.230;39.620;2023-04-25T11:10:19;0.63;;;0.40;;
75280;SDS011;63874;47.230;39.620;2023-04-25T11:12:45;0.40;;;0.20;;
75280;SDS011;63874;47.230;39.620;2023-04-25T11:15:12;0.52;;;0.20;;
75280;SDS011;63874;47.230;39.620;2023-04-25T11:17:44;0.57;;;0.25;;
75280;SDS011;63874;47.230;39.620;2023-04-25T11:20:30;0.20;;;0.10;;
75280;SDS011;63874;47.230;39.620;2023-04-25T11:22:59;0.63;;;0.55;;
75280;SDS011;63874;47.230;39.620;2023-04-25T11:25:25;0.38;;;0.20;;
75280;SDS011;63874;47.230;39.620;2023-04-25T11:27:51;0.45;;;0.20;;
75280;SDS011;63874;47.230;39.620;2023-04-25T11:30:18;0.47;;;0.20;;
75280;SDS011;63874;47.230;39.620;2023-04-25T11:32:45;0.28;;;0.13;;
75280;SDS011;63874;47.230;39.620;2023-04-25T11:35:12;0.25;;;0.13;;
75280;SDS011;63874;47.230;39.620;2023-04-25T11:37:38;0.30;;;0.20;;
75280;SDS011;63874;47.230;39.620;2023-04-25T11:40:05;0.38;;;0.10;;
75280;SDS011;63874;47.230;39.620;2023-04-25T11:42:32;0.43;;;0.10;;
75280;SDS011;63874;47.230;39.620;2023-04-25T11:44:59;0.30;;;0.10;;
75280;SDS011;63874;47.230;39.620;2023-04-25T11:47:31;0.45;;;0.20;;
75280;SDS011;63874;47.230;39.620;2023-04-25T11:50:05;0.70;;;0.20;;
75280;SDS011;63874;47.230;39.620;2023-04-25T11:55:03;0.43;;;0.20;;
75280;SDS011;63874;47.230;39.620;2023-04-25T11:57:39;0.55;;;0.15;;
75280;SDS011;63874;47.230;39.620;2023-04-25T12:02:39;0.50;;;0.20;;
75280;SDS011;63874;47.230;39.620;2023-04-25T12:05:07;0.60;;;0.20;;
75280;SDS011;63874;47.230;39.620;2023-04-25T12:07:34;0.90;;;0.30;;
75280;SDS011;63874;47.230;39.620;2023-04-25T12:10:04;0.47;;;0.30;;
75280;SDS011;63874;47.230;39.620;2023-04-25T12:12:32;1.00;;;0.28;;
75280;SDS011;63874;47.230;39.620;2023-04-25T12:15:08;0.32;;;0.10;;
75280;SDS011;63874;47.230;39.620;2023-04-25T12:17:44;0.70;;;0.10;;
75280;SDS011;63874;47.230;39.620;2023-04-25T12:20:15;0.40;;;0.15;;
75280;SDS011;63874;47.230;39.620;2023-04-25T12:22:45;0.60;;;0.43;;
75280;SDS011;63874;47.230;39.620;2023-04-25T12:25:13;0.60;;;0.20;;
75280;SDS011;63874;47.230;39.620;2023-04-25T12:33:32;0.82;;;0.30;;
75280;SDS011;63874;47.230;39.620;2023-04-25T12:36:00;0.70;;;0.22;;
75280;SDS011;63874;47.230;39.620;2023-04-25T12:38:34;0.63;;;0.32;;
75280;SDS011;63874;47.230;39.620;2023-04-25T12:41:01;0.93;;;0.30;;
75280;SDS011;63874;47.230;39.620;2023-04-25T12:43:27;0.70;;;0.30;;
75280;SDS011;63874;47.230;39.620;2023-04-25T12:45:54;1.00;;;0.28;;
75280;SDS011;63874;47.230;39.620;2023-04-25T12:48:20;1.00;;;0.35;;
75280;SDS011;63874;47.230;39.620;2023-04-25T12:50:47;0.47;;;0.20;;
75280;SDS011;63874;47.230;39.620;2023-04-25T12:53:20;0.43;;;0.20;;
75280;SDS011;63874;47.230;39.620;2023-04-25T12:55:47;0.73;;;0.32;;
75280;SDS011;63874;47.230;39.620;2023-04-25T12:58:13;1.00;;;0.82;;
75280;SDS011;63874;47.230;39.620;2023-04-25T13:00:40;1.48;;;0.52;;
75280;SDS011;63874;47.230;39.620;2023-04-25T13:03:07;0.60;;;0.30;;
75280;SDS011;63874;47.230;39.620;2023-04-25T13:05:34;1.17;;;0.57;;
75280;SDS011;63874;47.230;39.620;2023-04-25T13:08:00;0.93;;;0.28;;
75280;SDS011;63874;47.230;39.620;2023-04-25T13:10:26;0.60;;;0.15;;
75280;SDS011;63874;47.230;39.620;2023-04-25T13:12:52;1.98;;;0.28;;
75280;SDS011;63874;47.230;39.620;2023-04-25T13:15:18;0.60;;;0.30;;
75280;SDS011;63874;47.230;39.620;2023-04-25T13:17:44;0.63;;;0.22;;
75280;SDS011;63874;47.230;39.620;2023-04-25T13:20:09;0.55;;;0.10;;
75280;SDS011;63874;47.230;39.620;2023-04-25T13:22:37;0.80;;;0.40;;
75280;SDS011;63874;47.230;39.620;2023-04-25T13:25:07;0.50;;;0.20;;
75280;SDS011;63874;47.230;39.620;2023-04-25T13:27:33;0.60;;;0.30;;
75280;SDS011;63874;47.230;39.620;2023-04-25T13:30:01;0.73;;;0.20;;
75280;SDS011;63874;47.230;39.620;2023-04-25T13:32:35;0.45;;;0.20;;
75280;SDS011;63874;47.230;39.620;2023-04-25T13:35:03;0.65;;;0.25;;
75280;SDS011;63874;47.230;39.620;2023-04-25T13:37:31;1.00;;;0.35;;
75280;SDS011;63874;47.230;39.620;2023-04-25T13:40:01;0.55;;;0.35;;
75280;SDS011;63874;47.230;39.620;2023-04-25T13:42:30;1.10;;;0.40;;
75280;SDS011;63874;47.230;39.620;2023-04-25T13:44:56;0.93;;;0.63;;
75280;SDS011;63874;47.230;39.620;2023-04-25T13:47:22;1.23;;;0.57;;
75280;SDS011;63874;47.230;39.620;2023-04-25T13:49:49;1.15;;;0.20;;
75280;SDS011;63874;47.230;39.620;2023-04-25T13:52:15;1.63;;;0.35;;
75280;SDS011;63874;47.230;39.620;2023-04-25T13:54:41;0.70;;;0.30;;
75280;SDS011;63874;47.230;39.620;2023-04-25T13:57:07;0.60;;;0.30;;
75280;SDS011;63874;47.230;39.620;2023-04-25T13:59:33;0.70;;;0.28;;
75280;SDS011;63874;47.230;39.620;2023-04-25T14:01:59;1.63;;;0.30;;
75280;SDS011;63874;47.230;39.620;2023-04-25T14:04:25;1.63;;;0.47;;
75280;SDS011;63874;47.230;39.620;2023-04-25T14:06:51;0.82;;;0.30;;
75280;SDS011;63874;47.230;39.620;2023-04-25T14:09:18;1.08;;;0.40;;
75280;SDS011;63874;47.230;39.620;2023-04-25T14:11:44;1.30;;;0.40;;
75280;SDS011;63874;47.230;39.620;2023-04-25T14:14:10;1.88;;;0.40;;
75280;SDS011;63874;47.230;39.620;2023-04-25T14:16:37;1.13;;;0.30;;
75280;SDS011;63874;47.230;39.620;2023-04-25T14:19:03;0.93;;;0.32;;
75280;SDS011;63874;47.230;39.620;2023-04-25T14:21:29;0.85;;;0.32;;
75280;SDS011;63874;47.230;39.620;2023-04-25T14:23:57;0.95;;;0.40;;
75280;SDS011;63874;47.230;39.620;2023-04-25T14:26:23;0.88;;;0.30;;
75280;SDS011;63874;47.230;39.620;2023-04-25T14:28:49;1.05;;;0.40;;
75280;SDS011;63874;47.230;39.620;2023-04-25T14:31:16;1.30;;;0.20;;
75280;SDS011;63874;47.230;39.620;2023-04-25T14:33:42;0.52;;;0.22;;
75280;SDS011;63874;47.230;39.620;2023-04-25T14:36:08;1.42;;;0.40;;
75280;SDS011;63874;47.230;39.620;2023-04-25T14:38:36;0.93;;;0.40;;
75280;SDS011;63874;47.230;39.620;2023-04-25T14:41:02;0.70;;;0.38;;
75280;SDS011;63874;47.230;39.620;2023-04-25T14:43:28;0.65;;;0.40;;
75280;SDS011;63874;47.230;39.620;2023-04-25T14:45:54;0.98;;;0.40;;
75280;SDS011;63874;47.230;39.620;2023-04-25T14:48:20;1.85;;;0.38;;
75280;SDS011;63874;47.230;39.620;2023-04-25T14:50:46;1.52;;;0.52;;
75280;SDS011;63874;47.230;39.620;2023-04-25T14:53:12;0.88;;;0.50;;
75280;SDS011;63874;47.230;39.620;2023-04-25T14:55:38;1.70;;;0.47;;
75280;SDS011;63874;47.230;39.620;2023-04-25T14:58:04;1.50;;;0.52;;
75280;SDS011;63874;47.230;39.620;2023-04-25T15:00:30;0.95;;;0.20;;
75280;SDS011;63874;47.230;39.620;2023-04-25T15:02:59;1.65;;;0.40;;
75280;SDS011;63874;47.230;39.620;2023-04-25T15:05:24;1.30;;;0.50;;
75280;SDS011;63874;47.230;39.620;2023-04-25T15:07:50;1.40;;;0.73;;
75280;SDS011;63874;47.230;39.620;2023-04-25T15:10:17;0.82;;;0.40;;
75280;SDS011;63874;47.230;39.620;2023-04-25T15:12:43;1.20;;;0.47;;
75280;SDS011;63874;47.230;39.620;2023-04-25T15:15:10;1.00;;;0.25;;
75280;SDS011;63874;47.230;39.620;2023-04-25T15:17:46;0.93;;;0.40;;